Rain From: 21-07-2018 02:00 Until: 16:00 warning for: Rain Level: Yellow info button
suomi:
Sadevaroitus: Aamuyöstä alkaen voi sataa rankasti, yli 20 mm tunnissa.

svenska:
Nederbördsvarning: Från och med efternatten kan det förekomma synnerligen riklig nederbörd, mer än 20 mm i timmen.

english:
Heavy rain warning: From the early morning on heavy rain of more than 20 mm per hour can be expected. 

Forest fire From: 20-07-2018 23:00 Until: 21-07-2018 11:00 warning for: Forest fire Level: Yellow info button
suomi:
Metsäpalovaroitus on voimassa.

svenska:
Varning för skogsbrand gäller.

english:
A forest fire warning is in force. 


Thunder radar more information blitzortung!


Löydät sääaseman tiedot myös:

European Weather Network

Finland Weather Exchange

Weather Underground

AWEKAS



Weather Underground säähistoriasivu

Päivittäin yhteenveto Lokakuu 15, 2017 Yksiköt:  Metriset    Englantilaiset   Molemmat
« Edellinen Päivä
Seuraava Päivä »
Päivittäin Viikoittain Kuukausittain Vuosittain Mukautettu
  Korkea: Matala: Keskiarvo:
Lämpötila: -17.8 °C -14.8 °C -13.8 °C
Kastepiste: -17.8 °C -15.1 °C -14.3 °C
Kosteus: Humidity % 83 % 94 %
Tuulen nopeus: 0 km/h 0 km/h 0 km/h
Tuulenpuuska: 0 km/h - -
Tuuli:- - North
Ilmanpaine: 0 hPa 33992.1 hPa -
Sade: 0 mm    
Historical Graphs
 
 
Taulukkotiedot Lokakuu 15, 2017
Aika Lämpötila Kastepiste Ilmanpaine Tuuli Tuulen nopeus Tuulenpuuska Kosteus Sademäärä (tunneittain)
-17.8 °C -17.8 °C 0 hPa Calm     Humidity % 0 mm
00:00 -14.4 °C -14.6 °C 34005.6 hPa Calm     98 % 0 mm
00:15 -14.4 °C -14.6 °C 33992.1 hPa Calm     98 % 0 mm
00:30 -14.4 °C -14.6 °C 33992.1 hPa Calm     98 % 0 mm
00:45 -14.4 °C -14.6 °C 33992.1 hPa Calm     98 % 0 mm
01:00 -14.4 °C -14.6 °C 33992.1 hPa Calm     98 % 0 mm
01:15 -14.4 °C -14.6 °C 34005.6 hPa Calm     98 % 0 mm
01:30 -14.3 °C -14.4 °C 34005.6 hPa Calm     98 % 0 mm
01:45 -14.1 °C -14.3 °C 33992.1 hPa Calm     98 % 0 mm
02:00 -14.1 °C -14.2 °C 33992.1 hPa Calm     98 % 0 mm
02:15 -14.1 °C -14.3 °C 33992.1 hPa Calm     98 % 0 mm
02:30 -14.3 °C -14.5 °C 34005.6 hPa Calm     98 % 0 mm
02:45 -14.6 °C -14.7 °C 34005.6 hPa Calm     98 % 0 mm
03:00 -14.7 °C -14.9 °C 34015.8 hPa Calm     98 % 0 mm
03:15 -14.8 °C -15 °C 34015.8 hPa Calm     98 % 0 mm
03:30 -14.8 °C -15 °C 34015.8 hPa Calm     98 % 0 mm
03:45 -14.8 °C -15 °C 34015.8 hPa Calm     98 % 0 mm
04:00 -14.8 °C -15 °C 34029.3 hPa Calm     98 % 0 mm
04:15 -14.8 °C -14.9 °C 34029.3 hPa Calm     98 % 0 mm
04:30 -14.5 °C -14.7 °C 34029.3 hPa Calm     98 % 0 mm
04:45 -14.4 °C -14.6 °C 34029.3 hPa Calm     98 % 0 mm
05:00 -14.6 °C -14.7 °C 34039.5 hPa Calm     98 % 0 mm
05:15 -14.7 °C -14.8 °C 34039.5 hPa Calm     98 % 0 mm
05:30 -14.8 °C -14.9 °C 34039.5 hPa Calm     98 % 0 mm
05:45 -14.6 °C -14.8 °C 34049.6 hPa Calm     98 % 0 mm
06:00 -14.2 °C -14.4 °C 34049.6 hPa Calm     98 % 0 mm
06:15 -13.9 °C -14 °C 34049.6 hPa Calm     99 % 0 mm
06:30 -13.8 °C -13.9 °C 34049.6 hPa Calm     99 % 0 mm
06:45 -13.8 °C -13.9 °C 34063.2 hPa Calm     99 % 0 mm
07:00 -13.7 °C -13.8 °C 34063.2 hPa Calm     99 % 0 mm
07:15 -13.8 °C -13.8 °C 34073.3 hPa Calm     99 % 0 mm
07:30 -13.9 °C -14 °C 34073.3 hPa Calm     99 % 0 mm
07:45 -14.1 °C -14.3 °C 34073.3 hPa Calm     98 % 0 mm
08:00 -14.3 °C -14.4 °C 34073.3 hPa Calm     98 % 0 mm
08:15 -14.4 °C -14.6 °C 34073.3 hPa Calm     98 % 0 mm
08:30 -14.6 °C -14.7 °C 34073.3 hPa Calm     98 % 0 mm
08:45 -14.5 °C -14.6 °C 34086.9 hPa Calm     98 % 0 mm
09:00 -14.5 °C -14.7 °C 34097 hPa Calm     98 % 0 mm
09:15 -14.4 °C -14.6 °C 34107.2 hPa Calm     98 % 0 mm
09:30 -14.3 °C -14.5 °C 34107.2 hPa Calm     98 % 0 mm
09:45 -14.2 °C -14.4 °C 34120.7 hPa Calm     98 % 0 mm
10:00 -14.1 °C -14.2 °C 34130.9 hPa Calm     99 % 0 mm
10:15 -14 °C -14.2 °C 34130.9 hPa Calm     98 % 0 mm
10:30 -13.9 °C -14.1 °C 34130.9 hPa Calm     98 % 0 mm
10:45 -13.8 °C -13.8 °C 34144.4 hPa Calm     99 % 0 mm
11:00 -13.7 °C -13.9 °C 34154.6 hPa Calm     98 % 0 mm
11:15 -13.6 °C -13.7 °C 34144.4 hPa Calm     98 % 0 mm
11:30 -13.5 °C -13.7 °C 34154.6 hPa Calm     97 % 0 mm
11:45 -13.3 °C -13.6 °C 34164.7 hPa Calm     97 % 0 mm
12:00 -13.1 °C -13.5 °C 34164.7 hPa Calm     95 % 0 mm
12:15 -12.9 °C -13.4 °C 34164.7 hPa Calm     94 % 0 mm
12:30 -12.9 °C -13.6 °C 34178.3 hPa Calm     92 % 0 mm
12:45 -12.9 °C -13.6 °C 34188.4 hPa Calm     92 % 0 mm
13:00 -12.9 °C -13.6 °C 34188.4 hPa Calm     92 % 0 mm
13:15 -12.9 °C -13.7 °C 34188.4 hPa Calm     91 % 0 mm
13:30 -12.9 °C -13.6 °C 34188.4 hPa Calm     92 % 0 mm
13:45 -12.8 °C -13.4 °C 34198.6 hPa Calm     92 % 0 mm
14:00 -12.7 °C -13.5 °C 34198.6 hPa Calm     91 % 0 mm
14:15 -12.8 °C -13.7 °C 34198.6 hPa Calm     90 % 0 mm
14:30 -12.9 °C -13.8 °C 34198.6 hPa Calm     90 % 0 mm
14:45 -12.9 °C -13.7 °C 34212.1 hPa Calm     91 % 0 mm
15:00 -12.7 °C -13.7 °C 34212.1 hPa Calm     89 % 0 mm
15:15 -12.4 °C -13.5 °C 34212.1 hPa Calm     88 % 0 mm
15:30 -12.1 °C -13.4 °C 34198.6 hPa Calm     86 % 0 mm
15:45 -12.1 °C -13.5 °C 34212.1 hPa Calm     84 % 0 mm
16:00 -11.8 °C -13.4 °C 34222.3 hPa Calm     83 % 0 mm
16:15 -11.9 °C -13.3 °C 34222.3 hPa Calm     84 % 0 mm
16:30 -12.1 °C -13.6 °C 34222.3 hPa Calm     83 % 0 mm
16:45 -12.3 °C -13.7 °C 34222.3 hPa Calm     84 % 0 mm
17:00 -12.4 °C -13.7 °C 34222.3 hPa Calm     85 % 0 mm
17:15 -12.6 °C -13.8 °C 34235.8 hPa Calm     87 % 0 mm
17:30 -12.7 °C -13.8 °C 34235.8 hPa Calm     87 % 0 mm
17:45 -12.9 °C -14 °C 34235.8 hPa Calm     87 % 0 mm
18:00 -13.1 °C -14.1 °C 34235.8 hPa Calm     88 % 0 mm
18:15 -13.3 °C -14.3 °C 34235.8 hPa Calm     89 % 0 mm
18:30 -13.7 °C -14.5 °C 34235.8 hPa Calm     90 % 0 mm
18:45 -13.9 °C -14.7 °C 34235.8 hPa Calm     91 % 0 mm
19:00 -14.3 °C -14.9 °C 34235.8 hPa Calm     92 % 0 mm
19:15 -14.6 °C -15.1 °C 34235.8 hPa Calm     94 % 0 mm
19:30 -14.5 °C -14.8 °C 34235.8 hPa Calm     96 % 0 mm
19:45 -14.2 °C -14.5 °C 34235.8 hPa Calm     96 % 0 mm
20:00 -14.1 °C -14.4 °C 34235.8 hPa Calm     95 % 0 mm
20:15 -14.1 °C -14.6 °C 34222.3 hPa Calm     94 % 0 mm
20:30 -14.1 °C -14.6 °C 34222.3 hPa Calm     94 % 0 mm
20:45 -14 °C -14.4 °C 34222.3 hPa Calm     95 % 0 mm
21:00 -13.8 °C -14.3 °C 34222.3 hPa Calm     95 % 0 mm
21:30 -13.8 °C -14.3 °C 34212.1 hPa Calm     94 % 0 mm
21:45 -13.8 °C -14.3 °C 34212.1 hPa Calm     94 % 0 mm
22:00 -13.9 °C -14.4 °C 34212.1 hPa Calm     94 % 0 mm
22:15 -14 °C -14.4 °C 34212.1 hPa Calm     95 % 0 mm
22:30 -14 °C -14.4 °C 34198.6 hPa Calm     95 % 0 mm
22:45 -14.1 °C -14.5 °C 34188.4 hPa Calm     95 % 0 mm
23:00 -14.1 °C -14.5 °C 34188.4 hPa Calm     95 % 0 mm
23:15 -14.1 °C -14.5 °C 34178.3 hPa Calm     95 % 0 mm
23:30 -14.2 °C -14.6 °C 34178.3 hPa Calm     95 % 0 mm
23:45 -14.2 °C -14.7 °C 34178.3 hPa Calm     95 % 0 mm
Esan sääasema
Terveisin Weather Underground - 2.75 mb

Alkuperäinen skripti  Jim McMurry - jmcmurry@mwt.net Sovitettu myös templatelle  Wim van der Kuil - Leuven-Template.eu

Laitteet joita käytämme:

Sääasema
Davis VP2

Sääasemaohjelma
Cumulus

Sääaseman tietokone
Asus EeePC

Palveluntarjoaja
Suncomet

Davis VP2

Cumulus

Asus EeePC

Suncomet